Time;durP1;ratioP1;P1;durP2;ratioP2;P2;SDS_P1;SDS_P2;PMS_P1;PMS_P2;Temp;Humidity;BMP_temperature;BMP_pressure;BME280_temperature;BME280_humidity;BME280_pressure;Samples;Min_cycle;Max_cycle;Signal;HPM_P1;HPM_P2
2022/04/18 11:54:22;;;;;;;2.03;1.92;;;17.50;99.90;;;;;;5147776;27;20616;-67
2022/04/18 11:56:58;;;;;;;2.90;1.92;;;15.50;99.90;;;;;;5131764;28;20249;-67
2022/04/18 11:59:27;;;;;;;2.75;2.10;;;15.60;99.90;;;;;;5131715;28;20162;-67
2022/04/18 12:07:22;;;;;;;1.70;1.70;;;15.90;99.90;;;;;;5131610;28;20182;-67
2022/04/18 12:09:48;;;;;;;1.70;1.60;;;16.00;99.90;;;;;;5131483;28;20166;-68
2022/04/18 12:12:30;;;;;;;4.18;2.13;;;16.10;99.90;;;;;;5131250;28;20239;-68
2022/04/18 12:15:06;;;;;;;1.83;1.73;;;16.30;99.90;;;;;;5131356;28;20170;-67
2022/04/18 12:17:34;;;;;;;1.92;1.83;;;16.40;99.90;;;;;;5131363;28;20186;-67
2022/04/18 12:20:25;;;;;;;2.30;2.20;;;16.40;99.90;;;;;;5131288;28;20163;-67
2022/04/18 12:22:58;;;;;;;2.00;1.90;;;16.50;99.90;;;;;;5129946;28;20198;-67
2022/04/18 12:25:29;;;;;;;1.95;1.85;;;16.60;99.90;;;;;;5131304;28;20230;-67
2022/04/18 12:27:56;;;;;;;1.77;1.70;;;16.60;99.90;;;;;;5131158;28;20197;-67
2022/04/18 12:30:22;;;;;;;2.03;1.92;;;16.60;99.90;;;;;;5131130;28;20241;-67
2022/04/18 12:32:48;;;;;;;2.25;2.15;;;16.60;99.90;;;;;;5130949;28;20202;-67
2022/04/18 12:35:36;;;;;;;1.88;1.77;;;16.70;99.90;;;;;;5131014;28;20167;-68
2022/04/18 12:38:13;;;;;;;2.22;2.03;;;16.80;99.90;;;;;;5131008;27;20212;-68
2022/04/18 12:40:43;;;;;;;2.05;1.95;;;17.00;99.90;;;;;;5130925;28;20163;-68
2022/04/18 12:43:15;;;;;;;2.05;1.95;;;17.20;99.90;;;;;;5130783;27;20538;-68
2022/04/18 12:45:52;;;;;;;2.17;1.75;;;17.40;99.90;;;;;;5130817;28;20170;-68
2022/04/18 12:48:27;;;;;;;3.00;2.03;;;17.60;99.90;;;;;;5130739;28;20218;-68
2022/04/18 12:50:55;;;;;;;1.67;1.63;;;17.90;99.90;;;;;;5130697;28;20690;-68
2022/04/18 12:53:22;;;;;;;2.03;1.83;;;18.00;99.90;;;;;;5129096;28;20683;-67
2022/04/18 12:56:04;;;;;;;1.88;1.70;;;18.20;99.90;;;;;;5130621;28;20173;-67
2022/04/18 12:58:39;;;;;;;1.85;1.75;;;18.30;99.90;;;;;;5129328;28;20643;-67
2022/04/18 13:01:05;;;;;;;2.03;1.92;;;18.40;99.90;;;;;;5130482;28;20530;-69
2022/04/18 13:03:41;;;;;;;2.33;2.13;;;18.50;99.90;;;;;;5130047;28;20613;-67
2022/04/18 13:06:06;;;;;;;5.50;1.90;;;18.60;99.90;;;;;;5116389;28;20181;-68
2022/04/18 13:08:38;;;;;;;2.17;2.08;;;18.80;99.90;;;;;;5116578;28;20166;-68
2022/04/18 13:11:04;;;;;;;1.73;1.63;;;18.90;99.50;;;;;;5116656;28;20166;-68
2022/04/18 13:13:30;;;;;;;2.20;2.00;;;19.00;99.90;;;;;;5116493;28;20277;-68
2022/04/18 13:15:55;;;;;;;2.17;1.73;;;19.10;99.90;;;;;;5115184;28;20228;-68
2022/04/18 13:18:23;;;;;;;1.70;1.60;;;19.30;99.90;;;;;;5116525;28;20552;-68
2022/04/18 13:20:49;;;;;;;1.70;1.60;;;19.50;99.90;;;;;;5115079;28;20166;-68
2022/04/18 13:23:15;;;;;;;1.63;1.63;;;19.70;99.90;;;;;;5116426;28;20177;-68
2022/04/18 13:25:41;;;;;;;2.00;1.90;;;19.90;98.50;;;;;;5116310;28;20241;-68
2022/04/18 13:28:09;;;;;;;2.00;1.90;;;19.90;99.10;;;;;;5116353;28;20254;-67
2022/04/18 13:30:37;;;;;;;1.83;1.73;;;20.10;98.40;;;;;;5116223;28;20253;-67
2022/04/18 13:33:04;;;;;;;1.77;1.67;;;20.20;94.70;;;;;;5116124;28;20198;-67
2022/04/18 13:35:29;;;;;;;1.92;1.70;;;20.30;95.10;;;;;;5116077;28;20169;-67
2022/04/18 13:37:55;;;;;;;1.77;1.73;;;20.40;96.40;;;;;;5116099;28;20162;-68
2022/04/18 13:40:21;;;;;;;1.50;1.50;;;20.50;94.40;;;;;;5116077;28;20162;-68
2022/04/18 13:42:46;;;;;;;2.33;1.70;;;20.60;95.20;;;;;;5116065;28;20219;-68
2022/04/18 13:45:13;;;;;;;1.98;1.85;;;20.80;95.90;;;;;;5115950;28;20167;-68
2022/04/18 13:47:43;;;;;;;1.60;1.60;;;20.90;94.90;;;;;;5115943;28;20235;-69
2022/04/18 13:50:11;;;;;;;1.60;1.50;;;20.80;93.40;;;;;;5115802;28;20162;-68
2022/04/18 13:52:40;;;;;;;1.40;1.40;;;20.80;96.10;;;;;;5115769;28;20304;-68
2022/04/18 13:55:09;;;;;;;3.38;1.60;;;20.90;93.40;;;;;;5115902;28;20174;-68
2022/04/18 13:57:35;;;;;;;1.65;1.55;;;21.00;93.30;;;;;;5097921;28;20170;-68
2022/04/18 14:00:03;;;;;;;1.60;1.60;;;21.00;94.00;;;;;;5115791;28;20569;-68
2022/04/18 14:02:29;;;;;;;1.63;1.63;;;21.20;92.10;;;;;;5115608;28;20174;-68
2022/04/18 14:04:56;;;;;;;1.50;1.40;;;21.40;90.70;;;;;;5117905;28;20167;-67
2022/04/18 14:07:22;;;;;;;2.20;1.85;;;21.50;87.80;;;;;;5115443;28;20173;-80
2022/04/18 14:09:48;;;;;;;1.70;1.60;;;21.70;90.40;;;;;;5114896;28;20163;-78
2022/04/18 14:12:13;;;;;;;1.75;1.65;;;21.80;82.30;;;;;;5113811;28;20170;-75
2022/04/18 14:20:28;;;;;;;1.30;1.30;;;21.70;85.50;;;;;;5115265;28;20661;-72
2022/04/18 14:22:54;;;;;;;1.98;1.88;;;21.80;87.10;;;;;;5115125;28;20255;-72
2022/04/18 14:25:21;;;;;;;1.67;1.58;;;22.00;85.00;;;;;;5115140;28;20188;-73
2022/04/18 14:27:48;;;;;;;1.80;1.70;;;21.90;80.70;;;;;;5115067;28;20439;-72
2022/04/18 14:30:14;;;;;;;2.25;1.70;;;22.00;77.70;;;;;;5114988;28;20178;-72
2022/04/18 14:32:41;;;;;;;5.53;2.28;;;21.70;75.70;;;;;;5114952;28;20612;-72
2022/04/18 14:35:08;;;;;;;5.55;1.90;;;21.50;74.50;;;;;;5114968;28;20231;-72
2022/04/18 14:37:34;;;;;;;3.20;2.10;;;21.40;75.80;;;;;;5115013;28;20155;-72
2022/04/18 14:39:59;;;;;;;1.83;1.50;;;21.00;74.40;;;;;;5113621;28;20215;-72
2022/04/18 14:42:25;;;;;;;2.00;1.85;;;20.90;76.60;;;;;;5115824;28;20536;-72
2022/04/18 14:44:52;;;;;;;4.93;1.77;;;21.10;75.10;;;;;;5114741;28;20259;-73
2022/04/18 14:47:17;;;;;;;2.03;1.92;;;21.40;74.40;;;;;;5114732;28;20562;-74
2022/04/18 14:49:43;;;;;;;2.00;1.90;;;21.40;76.40;;;;;;5114695;28;20247;-72
2022/04/18 14:52:09;;;;;;;2.42;1.55;;;21.60;75.30;;;;;;5114338;28;20166;-72
2022/04/18 14:54:35;;;;;;;2.95;1.70;;;21.80;78.90;;;;;;5113357;28;20174;-73
2022/04/18 14:57:02;;;;;;;1.67;1.58;;;21.90;77.10;;;;;;5113205;28;20703;-72
2022/04/18 14:59:28;;;;;;;2.75;1.80;;;21.80;71.80;;;;;;5113135;28;20177;-73
2022/04/18 15:01:54;;;;;;;1.80;1.70;;;22.00;76.70;;;;;;5114370;28;20163;-74
2022/04/18 15:04:19;;;;;;;1.75;1.65;;;22.30;77.90;;;;;;5114416;28;20170;-76
2022/04/18 15:06:45;;;;;;;2.05;1.95;;;22.50;77.70;;;;;;5114448;28;20162;-75
2022/04/18 15:09:10;;;;;;;2.00;1.90;;;22.40;75.00;;;;;;5113009;28;20258;-74
2022/04/18 15:11:36;;;;;;;2.60;2.40;;;22.50;78.60;;;;;;5114225;28;20182;-72
2022/04/18 15:14:02;;;;;;;1.90;1.80;;;22.50;72.40;;;;;;5114130;28;20277;-74
2022/04/18 15:16:28;;;;;;;2.00;1.90;;;22.40;74.30;;;;;;5114162;28;20158;-74
2022/04/18 15:18:56;;;;;;;2.38;2.28;;;22.10;73.00;;;;;;5114171;28;20643;-74
2022/04/18 15:21:22;;;;;;;2.03;1.83;;;21.90;72.60;;;;;;5114110;28;20185;-74
2022/04/18 15:23:48;;;;;;;2.03;1.92;;;21.80;79.10;;;;;;5114078;28;20639;-71
2022/04/18 15:26:14;;;;;;;1.85;1.75;;;22.00;78.50;;;;;;5114082;28;20171;-71
2022/04/18 15:28:39;;;;;;;1.83;1.73;;;22.20;78.00;;;;;;5113829;28;20181;-71
2022/04/18 15:33:49;;;;;;;1.85;1.75;;;22.30;75.90;;;;;;5113956;28;20213;-71
2022/04/18 15:36:15;;;;;;;1.90;1.80;;;22.50;76.30;;;;;;5113810;28;20162;-73
2022/04/18 15:38:40;;;;;;;1.85;1.75;;;22.50;76.90;;;;;;5112470;28;20170;-72
2022/04/18 15:41:06;;;;;;;1.90;1.80;;;22.60;75.10;;;;;;5113897;28;20259;-72
2022/04/18 15:43:32;;;;;;;4.40;2.67;;;22.60;77.50;;;;;;5113877;28;20210;-72
2022/04/18 15:45:58;;;;;;;2.10;1.98;;;22.60;77.10;;;;;;5113863;28;20197;-71
2022/04/18 15:48:24;;;;;;;1.60;1.50;;;22.50;75.10;;;;;;5113907;28;20608;-75
2022/04/18 15:50:52;;;;;;;2.10;2.00;;;22.50;74.20;;;;;;5113671;28;20619;-73
2022/04/18 15:53:17;;;;;;;3.50;1.90;;;22.50;75.90;;;;;;5112196;28;20230;-75
2022/04/18 15:55:43;;;;;;;2.50;2.30;;;22.50;75.10;;;;;;5113722;28;20169;-72
2022/04/18 15:58:08;;;;;;;1.90;1.80;;;22.50;74.60;;;;;;5113803;28;20189;-77
2022/04/18 16:00:34;;;;;;;2.60;1.90;;;22.10;71.50;;;;;;5112531;28;20185;-76
2022/04/18 16:02:59;;;;;;;2.17;2.08;;;22.30;75.50;;;;;;5113636;28;20245;-71
2022/04/18 16:05:25;;;;;;;3.13;1.70;;;22.30;74.70;;;;;;5113572;28;20387;-73
2022/04/18 16:07:51;;;;;;;2.00;1.77;;;22.20;72.40;;;;;;5113633;28;20227;-83
2022/04/18 16:10:17;;;;;;;1.80;1.63;;;22.00;70.20;;;;;;5113513;28;20166;-73
2022/04/18 16:12:42;;;;;;;1.80;1.70;;;21.90;68.60;;;;;;5113420;28;20186;-73
2022/04/18 16:15:10;;;;;;;2.00;1.90;;;21.80;67.80;;;;;;5112273;28;20574;-73
2022/04/18 16:17:38;;;;;;;1.48;1.40;;;21.80;71.20;;;;;;5113491;28;20173;-73
2022/04/18 16:20:08;;;;;;;1.85;1.75;;;21.70;69.00;;;;;;5113371;28;20254;-74
2022/04/18 16:22:37;;;;;;;1.83;1.73;;;21.80;72.20;;;;;;5113452;28;20167;-73
2022/04/18 16:25:06;;;;;;;1.70;1.60;;;21.90;70.10;;;;;;5113464;28;20171;-72
2022/04/18 16:27:32;;;;;;;2.13;1.70;;;22.10;72.70;;;;;;5113313;28;20295;-72
2022/04/18 16:32:42;;;;;;;1.60;1.60;;;21.80;69.00;;;;;;5113330;28;20205;-73
2022/04/18 16:35:07;;;;;;;1.88;1.63;;;21.70;71.30;;;;;;5113407;28;20162;-72
2022/04/18 16:37:33;;;;;;;2.00;1.90;;;21.70;70.90;;;;;;5113379;28;20184;-72
2022/04/18 16:40:24;;;;;;;1.58;1.48;;;21.60;70.50;;;;;;5115165;28;20647;-72
2022/04/18 16:45:48;;;;;;;1.60;1.50;;;21.70;68.80;;;;;;5117188;28;20177;-72
2022/04/18 16:48:15;;;;;;;2.78;1.40;;;21.60;69.30;;;;;;5117127;28;20523;-66
2022/04/18 16:50:41;;;;;;;2.10;1.98;;;21.60;70.50;;;;;;5137512;27;20166;-66
2022/04/18 16:53:08;;;;;;;2.22;1.50;;;21.60;70.90;;;;;;5137254;27;20788;-66
2022/04/18 16:55:34;;;;;;;1.58;1.48;;;21.60;72.30;;;;;;5137317;27;20165;-66
2022/04/18 16:57:59;;;;;;;1.58;1.48;;;21.70;69.30;;;;;;5137460;27;20212;-66
2022/04/18 17:00:25;;;;;;;2.00;1.90;;;21.70;70.10;;;;;;5119025;27;20189;-66
2022/04/18 17:02:51;;;;;;;1.60;1.50;;;21.50;69.00;;;;;;5137329;27;20230;-66
2022/04/18 17:05:16;;;;;;;1.70;1.60;;;21.50;68.70;;;;;;5137176;27;20173;-66
2022/04/18 17:07:42;;;;;;;2.55;1.67;;;21.50;68.10;;;;;;5137170;27;20634;-66
2022/04/18 17:10:08;;;;;;;1.75;1.65;;;21.50;69.00;;;;;;5136732;27;20501;-66
2022/04/18 17:12:34;;;;;;;1.52;1.33;;;21.50;68.90;;;;;;5137032;27;20189;-66
2022/04/18 17:14:59;;;;;;;1.60;1.50;;;21.40;69.50;;;;;;5137063;27;20248;-66
2022/04/18 17:17:25;;;;;;;3.17;1.50;;;21.20;69.30;;;;;;5137019;27;20188;-66
2022/04/18 17:19:50;;;;;;;3.25;1.30;;;21.10;69.50;;;;;;5136940;27;20253;-66
2022/04/18 17:22:16;;;;;;;3.53;1.30;;;21.00;71.50;;;;;;5136924;27;20181;-66
2022/04/18 17:24:42;;;;;;;1.42;1.33;;;20.90;71.20;;;;;;5136728;27;20170;-66
2022/04/18 17:27:10;;;;;;;1.20;1.20;;;20.80;70.00;;;;;;5136862;27;20193;-66
2022/04/18 17:29:36;;;;;;;1.40;1.30;;;20.80;71.80;;;;;;5136841;27;20158;-66
2022/04/18 17:32:04;;;;;;;1.90;1.42;;;20.60;69.90;;;;;;5118490;27;20588;-66
2022/04/18 17:34:30;;;;;;;1.30;1.30;;;20.50;70.20;;;;;;5136517;27;20207;-67
2022/04/18 17:36:56;;;;;;;1.25;1.25;;;20.40;70.10;;;;;;5136409;27;20256;-66
2022/04/18 17:39:21;;;;;;;1.92;1.25;;;20.30;72.30;;;;;;5136582;27;20200;-66
2022/04/18 17:41:47;;;;;;;1.50;1.40;;;20.10;70.90;;;;;;5136440;27;20282;-66
2022/04/18 17:44:13;;;;;;;1.10;1.10;;;20.00;69.70;;;;;;5136348;27;20241;-66
2022/04/18 17:46:38;;;;;;;1.35;1.35;;;19.90;71.20;;;;;;5136381;27;20169;-66
2022/04/18 17:49:04;;;;;;;1.60;1.60;;;19.80;70.70;;;;;;5136343;27;20221;-66
2022/04/18 17:51:30;;;;;;;1.95;1.63;;;19.70;72.40;;;;;;5136066;27;20162;-66
2022/04/18 17:56:40;;;;;;;1.95;1.30;;;19.40;73.50;;;;;;5116043;28;20188;-66
2022/04/18 17:59:06;;;;;;;1.35;1.35;;;19.10;70.70;;;;;;5115695;28;20639;-66
2022/04/18 18:01:33;;;;;;;2.10;1.40;;;18.90;72.40;;;;;;5115521;28;20620;-66
2022/04/18 18:03:59;;;;;;;1.83;1.52;;;18.70;73.40;;;;;;5115463;28;20296;-66
2022/04/18 18:06:24;;;;;;;1.30;1.30;;;18.40;72.10;;;;;;5115294;28;20194;-66
2022/04/18 18:08:50;;;;;;;1.40;1.40;;;18.10;72.70;;;;;;5115366;28;20167;-66
2022/04/18 18:11:16;;;;;;;1.38;1.38;;;17.90;72.90;;;;;;5115332;28;20177;-66
2022/04/18 18:13:43;;;;;;;3.20;1.40;;;17.60;76.80;;;;;;5115295;28;20278;-66
2022/04/18 18:16:09;;;;;;;1.70;1.60;;;17.30;75.30;;;;;;5115330;28;20163;-66
2022/04/18 18:18:37;;;;;;;1.60;1.50;;;17.10;75.20;;;;;;5115151;28;20258;-66
2022/04/18 18:21:03;;;;;;;1.77;1.67;;;16.80;78.10;;;;;;5115097;27;20163;-66
2022/04/18 18:23:35;;;;;;;2.92;1.67;;;16.60;77.30;;;;;;5115002;28;20171;-66
2022/04/18 18:26:01;;;;;;;7.75;1.50;;;16.30;78.50;;;;;;5115034;27;20529;-66
2022/04/18 18:28:27;;;;;;;2.03;1.65;;;16.10;79.60;;;;;;5114880;28;20171;-66
2022/04/18 18:30:56;;;;;;;1.92;1.60;;;15.90;80.70;;;;;;5114726;28;20198;-67
2022/04/18 18:33:22;;;;;;;1.65;1.50;;;15.70;80.50;;;;;;5113523;28;20197;-66
